RYR3884 EDLV-EPSY
Flight info
| Callsign | RYR3884 |
|---|---|
| Flight time | 1h 26m |
| Altitude | 39000 |
| Route | ERKUM1R ERKUM L179 MISRI Z851 ROBEG L980 HLZ DCT GILAS DCT DEKUT N858 GRUDA T720 IBINO |
| Aircraft | B738/M-SDE2E3FGHIRWXY/LB1 |
Departure
| Time | 2026-04-26 19:49 |
|---|---|
| Airport | Weeze (Niederrhein) Airport (EDLV) |
Arrival
| Time | 2026-04-26 21:16 |
|---|---|
| Airport | Olsztyn-Mazury Airport (EPSY) |
| Time | Latitude | Longitude | Altitude | Speed | Heading |
|---|---|---|---|---|---|
| 2026-04-26 19:18 | 51.59956 | 6.14860 | 110 ft | 0 kts | 89° |
| 2026-04-26 19:38 | 51.59956 | 6.14854 | 112 ft | 3 kts | 89° |
| 2026-04-26 19:39 | 51.59958 | 6.14813 | 110 ft | 4 kts | 121° |
| 2026-04-26 19:39 | 51.59973 | 6.14797 | 110 ft | 3 kts | 179° |
| 2026-04-26 19:39 | 51.59999 | 6.14800 | 110 ft | 4 kts | 180° |
| 2026-04-26 19:39 | 51.60024 | 6.14802 | 108 ft | 4 kts | 201° |
| 2026-04-26 19:40 | 51.60041 | 6.14826 | 110 ft | 4 kts | 255° |
| 2026-04-26 19:40 | 51.60044 | 6.14866 | 111 ft | 2 kts | 271° |
| 2026-04-26 19:40 | 51.60044 | 6.14869 | 111 ft | 1 kts | 271° |
| 2026-04-26 19:42 | 51.60044 | 6.14867 | 111 ft | 1 kts | 271° |
| 2026-04-26 19:42 | 51.60044 | 6.14818 | 110 ft | 9 kts | 271° |
| 2026-04-26 19:42 | 51.60047 | 6.14672 | 108 ft | 16 kts | 271° |
| 2026-04-26 19:42 | 51.60048 | 6.14490 | 109 ft | 16 kts | 273° |
| 2026-04-26 19:43 | 51.60052 | 6.14314 | 110 ft | 15 kts | 272° |
| 2026-04-26 19:43 | 51.60056 | 6.14144 | 111 ft | 15 kts | 272° |
| 2026-04-26 19:43 | 51.60059 | 6.13984 | 113 ft | 14 kts | 271° |
| 2026-04-26 19:43 | 51.60063 | 6.13805 | 113 ft | 18 kts | 272° |
| 2026-04-26 19:44 | 51.60068 | 6.13575 | 111 ft | 22 kts | 271° |
| 2026-04-26 19:44 | 51.60073 | 6.13335 | 110 ft | 21 kts | 272° |
| 2026-04-26 19:44 | 51.60079 | 6.13103 | 108 ft | 21 kts | 272° |
| 2026-04-26 19:44 | 51.60084 | 6.12877 | 107 ft | 20 kts | 272° |
| 2026-04-26 19:45 | 51.60089 | 6.12659 | 108 ft | 19 kts | 271° |
| 2026-04-26 19:45 | 51.60104 | 6.12469 | 109 ft | 14 kts | 317° |
| 2026-04-26 19:45 | 51.60197 | 6.12460 | 110 ft | 13 kts | 2° |
| 2026-04-26 19:45 | 51.60278 | 6.12472 | 112 ft | 7 kts | 32° |
| 2026-04-26 19:46 | 51.60308 | 6.12517 | 111 ft | 13 kts | 27° |
| 2026-04-26 19:46 | 51.60407 | 6.12524 | 112 ft | 10 kts | 357° |
| 2026-04-26 19:46 | 51.60411 | 6.12484 | 111 ft | 4 kts | 202° |
| 2026-04-26 19:46 | 51.60388 | 6.12478 | 112 ft | 0 kts | 181° |
| 2026-04-26 19:48 | 51.60384 | 6.12478 | 112 ft | 4 kts | 181° |
| 2026-04-26 19:48 | 51.60310 | 6.12475 | 112 ft | 12 kts | 182° |
| 2026-04-26 19:48 | 51.60284 | 6.12496 | 110 ft | 4 kts | 92° |
| 2026-04-26 19:48 | 51.60284 | 6.12498 | 110 ft | 0 kts | 92° |
| 2026-04-26 19:49 | 51.60276 | 6.12861 | 111 ft | 70 kts | 92° |
| 2026-04-26 19:49 | 51.60252 | 6.14015 | 114 ft | 134 kts | 92° |
| 2026-04-26 19:49 | 51.60200 | 6.15740 | 366 ft | 165 kts | 94° |
| 2026-04-26 19:49 | 51.60124 | 6.17618 | 1077 ft | 171 kts | 89° |
| 2026-04-26 19:50 | 51.60125 | 6.19533 | 1729 ft | 181 kts | 88° |
| 2026-04-26 19:50 | 51.60290 | 6.21664 | 1970 ft | 203 kts | 73° |
| 2026-04-26 19:50 | 51.60728 | 6.23931 | 2190 ft | 220 kts | 73° |
| 2026-04-26 19:50 | 51.61173 | 6.26367 | 2457 ft | 237 kts | 74° |
| 2026-04-26 19:51 | 51.61605 | 6.29012 | 2870 ft | 250 kts | 75° |
| 2026-04-26 19:51 | 51.62029 | 6.31759 | 3559 ft | 256 kts | 76° |
| 2026-04-26 19:51 | 51.62461 | 6.34571 | 4239 ft | 262 kts | 75° |
| 2026-04-26 19:51 | 51.62902 | 6.37448 | 4920 ft | 267 kts | 75° |
| 2026-04-26 19:52 | 51.63353 | 6.40376 | 5621 ft | 272 kts | 74° |
| 2026-04-26 19:52 | 51.63809 | 6.43334 | 6403 ft | 273 kts | 74° |
| 2026-04-26 19:52 | 51.64269 | 6.46319 | 7119 ft | 277 kts | 73° |
| 2026-04-26 19:52 | 51.64737 | 6.49357 | 7834 ft | 281 kts | 73° |
| 2026-04-26 19:53 | 51.65209 | 6.52425 | 8579 ft | 284 kts | 73° |
| 2026-04-26 19:53 | 51.65687 | 6.55536 | 9346 ft | 288 kts | 73° |
| 2026-04-26 19:53 | 51.66171 | 6.58684 | 10117 ft | 292 kts | 73° |
| 2026-04-26 19:53 | 51.66665 | 6.61906 | 10701 ft | 303 kts | 73° |
| 2026-04-26 19:54 | 51.67192 | 6.65333 | 10916 ft | 326 kts | 73° |
| 2026-04-26 19:54 | 51.67744 | 6.68953 | 11460 ft | 336 kts | 73° |
| 2026-04-26 19:54 | 51.68303 | 6.72634 | 12196 ft | 340 kts | 74° |
| 2026-04-26 19:54 | 51.68866 | 6.76351 | 12981 ft | 343 kts | 74° |
| 2026-04-26 19:55 | 51.69436 | 6.80111 | 13758 ft | 348 kts | 73° |
| 2026-04-26 19:55 | 51.70077 | 6.83883 | 14500 ft | 350 kts | 68° |
| 2026-04-26 19:55 | 51.71009 | 6.87582 | 15231 ft | 353 kts | 64° |
| 2026-04-26 19:55 | 51.72000 | 6.91182 | 15943 ft | 357 kts | 63° |
| 2026-04-26 19:56 | 51.73026 | 6.94853 | 16670 ft | 362 kts | 63° |
| 2026-04-26 19:56 | 51.74073 | 6.98628 | 17399 ft | 366 kts | 63° |
| 2026-04-26 19:56 | 51.75098 | 7.02370 | 18105 ft | 371 kts | 63° |
| 2026-04-26 19:56 | 51.76152 | 7.06260 | 18789 ft | 376 kts | 63° |
| 2026-04-26 19:57 | 51.77196 | 7.10152 | 19408 ft | 380 kts | 63° |
| 2026-04-26 19:57 | 51.78249 | 7.14099 | 20036 ft | 384 kts | 63° |
| 2026-04-26 19:57 | 51.79304 | 7.18073 | 20651 ft | 388 kts | 63° |
| 2026-04-26 19:57 | 51.80371 | 7.22106 | 21260 ft | 392 kts | 63° |
| 2026-04-26 19:58 | 51.81445 | 7.26173 | 21859 ft | 396 kts | 63° |
| 2026-04-26 19:58 | 51.82527 | 7.30280 | 22454 ft | 400 kts | 63° |
| 2026-04-26 19:58 | 51.83624 | 7.34448 | 23004 ft | 406 kts | 63° |
| 2026-04-26 19:58 | 51.84734 | 7.38675 | 23506 ft | 411 kts | 63° |
| 2026-04-26 19:59 | 51.85855 | 7.42953 | 23887 ft | 415 kts | 63° |
| 2026-04-26 19:59 | 51.86970 | 7.47215 | 24293 ft | 418 kts | 63° |
| 2026-04-26 19:59 | 51.88101 | 7.51554 | 24858 ft | 419 kts | 63° |
| 2026-04-26 19:59 | 51.89247 | 7.55958 | 25405 ft | 420 kts | 63° |
| 2026-04-26 20:00 | 51.90383 | 7.60327 | 25874 ft | 423 kts | 63° |
| 2026-04-26 20:00 | 51.91528 | 7.64735 | 26315 ft | 427 kts | 63° |
| 2026-04-26 20:00 | 51.92682 | 7.69188 | 26764 ft | 430 kts | 63° |
| 2026-04-26 20:00 | 51.93840 | 7.73665 | 27217 ft | 432 kts | 63° |
| 2026-04-26 20:01 | 51.94988 | 7.78116 | 27657 ft | 435 kts | 63° |
| 2026-04-26 20:01 | 51.96157 | 7.82655 | 28081 ft | 438 kts | 63° |
| 2026-04-26 20:01 | 51.97331 | 7.87226 | 28525 ft | 441 kts | 63° |
| 2026-04-26 20:01 | 51.98512 | 7.91832 | 28923 ft | 444 kts | 63° |
| 2026-04-26 20:02 | 51.99700 | 7.96474 | 29335 ft | 447 kts | 63° |
| 2026-04-26 20:02 | 52.00894 | 8.01149 | 29736 ft | 449 kts | 62° |
| 2026-04-26 20:02 | 52.02091 | 8.05847 | 30110 ft | 453 kts | 62° |
| 2026-04-26 20:02 | 52.02497 | 8.07441 | 30222 ft | 454 kts | 62° |
| 2026-04-26 20:03 | 52.04115 | 8.13814 | 30650 ft | 458 kts | 62° |
| 2026-04-26 20:03 | 52.05330 | 8.18606 | 30995 ft | 459 kts | 62° |
| 2026-04-26 20:03 | 52.06547 | 8.23419 | 31326 ft | 461 kts | 63° |
| 2026-04-26 20:03 | 52.07735 | 8.28196 | 31628 ft | 464 kts | 65° |
| 2026-04-26 20:04 | 52.08711 | 8.33232 | 31897 ft | 470 kts | 70° |
| 2026-04-26 20:04 | 52.09538 | 8.38386 | 32209 ft | 473 kts | 71° |
| 2026-04-26 20:04 | 52.10321 | 8.43601 | 32549 ft | 474 kts | 72° |
| 2026-04-26 20:04 | 52.11097 | 8.48795 | 32978 ft | 472 kts | 72° |
| 2026-04-26 20:05 | 52.11885 | 8.53968 | 33435 ft | 469 kts | 71° |
| 2026-04-26 20:05 | 52.12685 | 8.59104 | 33841 ft | 468 kts | 71° |
| 2026-04-26 20:05 | 52.13494 | 8.64235 | 34202 ft | 468 kts | 71° |
| 2026-04-26 20:05 | 52.14308 | 8.69363 | 34527 ft | 467 kts | 71° |
| 2026-04-26 20:06 | 52.15116 | 8.74474 | 34871 ft | 466 kts | 71° |
| 2026-04-26 20:06 | 52.15921 | 8.79580 | 35229 ft | 464 kts | 71° |
| 2026-04-26 20:06 | 52.16719 | 8.84661 | 35534 ft | 463 kts | 71° |
| 2026-04-26 20:06 | 52.17515 | 8.89750 | 35855 ft | 463 kts | 71° |
| 2026-04-26 20:07 | 52.18306 | 8.94827 | 36156 ft | 462 kts | 71° |
| 2026-04-26 20:07 | 52.19093 | 8.99827 | 36476 ft | 461 kts | 71° |
| 2026-04-26 20:07 | 52.19898 | 9.04880 | 36761 ft | 460 kts | 71° |
| 2026-04-26 20:07 | 52.20703 | 9.09921 | 37063 ft | 459 kts | 71° |
| 2026-04-26 20:08 | 52.21504 | 9.14956 | 37355 ft | 458 kts | 71° |
| 2026-04-26 20:08 | 52.22300 | 9.19987 | 37656 ft | 458 kts | 71° |
| 2026-04-26 20:08 | 52.23084 | 9.25009 | 37945 ft | 457 kts | 72° |
| 2026-04-26 20:08 | 52.23606 | 9.30141 | 38211 ft | 462 kts | 82° |
| 2026-04-26 20:09 | 52.23778 | 9.35371 | 38497 ft | 462 kts | 84° |
| 2026-04-26 20:09 | 52.23892 | 9.40606 | 38758 ft | 462 kts | 84° |
| 2026-04-26 20:09 | 52.23999 | 9.45839 | 38991 ft | 461 kts | 84° |
| 2026-04-26 20:09 | 52.24117 | 9.51068 | 39175 ft | 461 kts | 84° |
| 2026-04-26 20:10 | 52.24248 | 9.56285 | 39285 ft | 462 kts | 84° |
| 2026-04-26 20:10 | 52.24389 | 9.61548 | 39289 ft | 465 kts | 84° |
| 2026-04-26 20:10 | 52.24676 | 9.72053 | 39284 ft | 462 kts | 84° |
| 2026-04-26 20:11 | 52.24950 | 9.82479 | 39289 ft | 458 kts | 84° |
| 2026-04-26 20:12 | 52.26135 | 9.97740 | 39303 ft | 448 kts | 73° |
| 2026-04-26 20:12 | 52.27472 | 10.07667 | 39300 ft | 448 kts | 73° |
| 2026-04-26 20:13 | 52.28769 | 10.17625 | 39298 ft | 449 kts | 74° |
| 2026-04-26 20:13 | 52.30020 | 10.27627 | 39300 ft | 451 kts | 74° |
| 2026-04-26 20:14 | 52.31256 | 10.37690 | 39312 ft | 453 kts | 74° |
| 2026-04-26 20:14 | 52.32493 | 10.47828 | 39308 ft | 456 kts | 74° |
| 2026-04-26 20:15 | 52.33729 | 10.58032 | 39304 ft | 459 kts | 75° |
| 2026-04-26 20:15 | 52.34962 | 10.68284 | 39295 ft | 461 kts | 75° |
| 2026-04-26 20:16 | 52.36193 | 10.78587 | 39292 ft | 462 kts | 75° |
| 2026-04-26 20:16 | 52.37241 | 10.88902 | 39290 ft | 464 kts | 78° |
| 2026-04-26 20:17 | 52.38101 | 10.99383 | 39301 ft | 464 kts | 78° |
| 2026-04-26 20:17 | 52.38954 | 11.09853 | 39285 ft | 464 kts | 78° |
| 2026-04-26 20:18 | 52.39828 | 11.20304 | 39280 ft | 462 kts | 78° |
| 2026-04-26 20:18 | 52.40704 | 11.30717 | 39284 ft | 461 kts | 78° |
| 2026-04-26 20:19 | 52.41574 | 11.41117 | 39287 ft | 460 kts | 78° |
| 2026-04-26 20:19 | 52.42430 | 11.51486 | 39301 ft | 459 kts | 78° |
| 2026-04-26 20:20 | 52.43276 | 11.61852 | 39293 ft | 459 kts | 78° |
| 2026-04-26 20:20 | 52.44113 | 11.72227 | 39298 ft | 459 kts | 78° |
| 2026-04-26 20:21 | 52.44941 | 11.82601 | 39296 ft | 459 kts | 78° |
| 2026-04-26 20:21 | 52.45761 | 11.92998 | 39292 ft | 460 kts | 78° |
| 2026-04-26 20:22 | 52.46573 | 12.03410 | 39306 ft | 461 kts | 79° |
| 2026-04-26 20:22 | 52.47377 | 12.13846 | 39296 ft | 462 kts | 79° |
| 2026-04-26 20:23 | 52.48174 | 12.24309 | 39298 ft | 463 kts | 79° |
| 2026-04-26 20:23 | 52.48962 | 12.34788 | 39300 ft | 463 kts | 79° |
| 2026-04-26 20:24 | 52.49743 | 12.45297 | 39296 ft | 464 kts | 79° |
| 2026-04-26 20:24 | 52.50515 | 12.55817 | 39310 ft | 465 kts | 79° |
| 2026-04-26 20:25 | 52.51279 | 12.66361 | 39302 ft | 466 kts | 79° |
| 2026-04-26 20:25 | 52.52031 | 12.76857 | 39296 ft | 466 kts | 79° |
| 2026-04-26 20:26 | 52.52777 | 12.87420 | 39300 ft | 466 kts | 79° |
| 2026-04-26 20:26 | 52.53515 | 12.98003 | 39299 ft | 466 kts | 79° |
| 2026-04-26 20:27 | 52.54244 | 13.08588 | 39322 ft | 466 kts | 79° |
| 2026-04-26 20:27 | 52.54963 | 13.19174 | 39313 ft | 466 kts | 80° |
| 2026-04-26 20:28 | 52.55673 | 13.29777 | 39307 ft | 466 kts | 80° |
| 2026-04-26 20:28 | 52.56373 | 13.40357 | 39310 ft | 466 kts | 80° |
| 2026-04-26 20:29 | 52.57062 | 13.50932 | 39310 ft | 465 kts | 80° |
| 2026-04-26 20:29 | 52.57741 | 13.61499 | 39322 ft | 465 kts | 80° |
| 2026-04-26 20:30 | 52.58411 | 13.72068 | 39309 ft | 465 kts | 80° |
| 2026-04-26 20:30 | 52.59072 | 13.82645 | 39305 ft | 464 kts | 80° |
| 2026-04-26 20:31 | 52.59722 | 13.93211 | 39303 ft | 464 kts | 80° |
| 2026-04-26 20:31 | 52.60362 | 14.03771 | 39299 ft | 464 kts | 81° |
| 2026-04-26 20:32 | 52.60995 | 14.14354 | 39317 ft | 464 kts | 81° |
| 2026-04-26 20:32 | 52.61617 | 14.24932 | 39309 ft | 465 kts | 81° |
| 2026-04-26 20:33 | 52.62231 | 14.35520 | 39312 ft | 465 kts | 81° |
| 2026-04-26 20:33 | 52.62836 | 14.46109 | 39312 ft | 465 kts | 81° |
| 2026-04-26 20:34 | 52.63876 | 14.56547 | 39302 ft | 458 kts | 68° |
| 2026-04-26 20:34 | 52.65928 | 14.66452 | 39307 ft | 457 kts | 66° |
| 2026-04-26 20:35 | 52.68020 | 14.76353 | 39313 ft | 458 kts | 66° |
| 2026-04-26 20:35 | 52.70072 | 14.86303 | 39309 ft | 459 kts | 67° |
| 2026-04-26 20:36 | 52.72090 | 14.96281 | 39311 ft | 459 kts | 67° |
| 2026-04-26 20:36 | 52.74097 | 15.06292 | 39313 ft | 460 kts | 67° |
| 2026-04-26 20:37 | 52.76085 | 15.16257 | 39308 ft | 460 kts | 68° |
| 2026-04-26 20:37 | 52.78079 | 15.26299 | 39332 ft | 461 kts | 67° |
| 2026-04-26 20:38 | 52.80068 | 15.36365 | 39315 ft | 461 kts | 67° |
| 2026-04-26 20:38 | 52.82049 | 15.46446 | 39315 ft | 461 kts | 67° |
| 2026-04-26 20:39 | 52.84018 | 15.56512 | 39314 ft | 460 kts | 68° |
| 2026-04-26 20:39 | 52.85978 | 15.66587 | 39312 ft | 460 kts | 68° |
| 2026-04-26 20:40 | 52.87925 | 15.76653 | 39318 ft | 459 kts | 68° |
| 2026-04-26 20:40 | 52.89863 | 15.86718 | 39324 ft | 459 kts | 68° |
| 2026-04-26 20:41 | 52.91792 | 15.96791 | 39341 ft | 459 kts | 68° |
| 2026-04-26 20:41 | 52.93713 | 16.06875 | 39327 ft | 459 kts | 68° |
| 2026-04-26 20:42 | 52.95627 | 16.16980 | 39316 ft | 459 kts | 68° |
| 2026-04-26 20:42 | 52.97530 | 16.27076 | 39316 ft | 459 kts | 68° |
| 2026-04-26 20:43 | 52.99426 | 16.37192 | 39318 ft | 459 kts | 68° |
| 2026-04-26 20:43 | 53.01313 | 16.47319 | 39324 ft | 459 kts | 68° |
| 2026-04-26 20:44 | 53.03203 | 16.57499 | 38898 ft | 466 kts | 68° |
| 2026-04-26 20:44 | 53.04154 | 16.62647 | 38347 ft | 465 kts | 68° |
| 2026-04-26 20:44 | 53.05095 | 16.67770 | 37957 ft | 460 kts | 68° |
| 2026-04-26 20:44 | 53.06020 | 16.72822 | 37529 ft | 456 kts | 68° |
| 2026-04-26 20:45 | 53.06937 | 16.77838 | 37190 ft | 451 kts | 68° |
| 2026-04-26 20:45 | 53.07844 | 16.82806 | 36793 ft | 448 kts | 68° |
| 2026-04-26 20:45 | 53.08743 | 16.87742 | 36415 ft | 444 kts | 68° |
| 2026-04-26 20:45 | 53.09634 | 16.92639 | 36046 ft | 440 kts | 67° |
| 2026-04-26 20:46 | 53.10516 | 16.97501 | 35661 ft | 438 kts | 67° |
| 2026-04-26 20:46 | 53.11391 | 17.02339 | 35282 ft | 435 kts | 67° |
| 2026-04-26 20:46 | 53.12366 | 17.07068 | 34883 ft | 430 kts | 63° |
| 2026-04-26 20:46 | 53.13457 | 17.11691 | 34491 ft | 427 kts | 61° |
| 2026-04-26 20:47 | 53.14583 | 17.16262 | 34088 ft | 425 kts | 60° |
| 2026-04-26 20:47 | 53.14947 | 17.17730 | 33956 ft | 424 kts | 60° |
| 2026-04-26 20:47 | 53.16802 | 17.25247 | 33300 ft | 420 kts | 61° |
| 2026-04-26 20:47 | 53.17896 | 17.29742 | 32937 ft | 417 kts | 61° |
| 2026-04-26 20:48 | 53.18973 | 17.34212 | 32570 ft | 414 kts | 61° |
| 2026-04-26 20:48 | 53.20036 | 17.38656 | 32220 ft | 411 kts | 61° |
| 2026-04-26 20:48 | 53.21090 | 17.43080 | 31866 ft | 409 kts | 61° |
| 2026-04-26 20:48 | 53.22132 | 17.47469 | 31559 ft | 406 kts | 61° |
| 2026-04-26 20:49 | 53.23166 | 17.51836 | 31198 ft | 403 kts | 61° |
| 2026-04-26 20:49 | 53.23846 | 17.54712 | 30974 ft | 403 kts | 61° |
| 2026-04-26 20:49 | 53.24877 | 17.59071 | 30630 ft | 404 kts | 61° |
| 2026-04-26 20:49 | 53.25905 | 17.63427 | 30270 ft | 403 kts | 61° |
| 2026-04-26 20:50 | 53.26928 | 17.67778 | 29861 ft | 401 kts | 61° |
| 2026-04-26 20:50 | 53.27940 | 17.72099 | 29492 ft | 398 kts | 61° |
| 2026-04-26 20:50 | 53.28943 | 17.76385 | 29133 ft | 394 kts | 61° |
| 2026-04-26 20:50 | 53.29937 | 17.80644 | 28762 ft | 391 kts | 61° |
| 2026-04-26 20:51 | 53.30918 | 17.84851 | 28405 ft | 387 kts | 61° |
| 2026-04-26 20:51 | 53.31892 | 17.89032 | 28038 ft | 384 kts | 61° |
| 2026-04-26 20:51 | 53.32857 | 17.93181 | 27683 ft | 382 kts | 61° |
| 2026-04-26 20:51 | 53.33818 | 17.97320 | 27338 ft | 380 kts | 61° |
| 2026-04-26 20:52 | 53.34771 | 18.01434 | 27000 ft | 379 kts | 61° |
| 2026-04-26 20:52 | 53.35721 | 18.05538 | 26658 ft | 378 kts | 61° |
| 2026-04-26 20:52 | 53.36667 | 18.09637 | 26319 ft | 378 kts | 61° |
| 2026-04-26 20:52 | 53.37611 | 18.13735 | 26000 ft | 377 kts | 61° |
| 2026-04-26 20:53 | 53.38551 | 18.17837 | 25647 ft | 376 kts | 61° |
| 2026-04-26 20:53 | 53.39480 | 18.21916 | 25296 ft | 374 kts | 61° |
| 2026-04-26 20:53 | 53.40401 | 18.25973 | 24956 ft | 372 kts | 61° |
| 2026-04-26 20:53 | 53.41318 | 18.30019 | 24618 ft | 370 kts | 61° |
| 2026-04-26 20:54 | 53.42228 | 18.34039 | 24297 ft | 369 kts | 60° |
| 2026-04-26 20:54 | 53.43136 | 18.38055 | 23933 ft | 368 kts | 60° |
| 2026-04-26 20:54 | 53.44041 | 18.42063 | 23549 ft | 366 kts | 60° |
| 2026-04-26 20:54 | 53.44939 | 18.46050 | 23166 ft | 364 kts | 60° |
| 2026-04-26 20:55 | 53.45829 | 18.50010 | 22815 ft | 362 kts | 60° |
| 2026-04-26 20:55 | 53.46701 | 18.53895 | 22477 ft | 359 kts | 60° |
| 2026-04-26 20:55 | 53.47577 | 18.57808 | 22134 ft | 356 kts | 60° |
| 2026-04-26 20:55 | 53.48446 | 18.61693 | 21811 ft | 354 kts | 60° |
| 2026-04-26 20:56 | 53.49306 | 18.65540 | 21481 ft | 351 kts | 60° |
| 2026-04-26 20:56 | 53.50173 | 18.69425 | 21152 ft | 349 kts | 60° |
| 2026-04-26 20:56 | 53.51008 | 18.73181 | 20837 ft | 347 kts | 60° |
| 2026-04-26 20:56 | 53.51842 | 18.76976 | 20520 ft | 346 kts | 63° |
| 2026-04-26 20:57 | 53.52387 | 18.80963 | 20236 ft | 355 kts | 74° |
| 2026-04-26 20:57 | 53.52677 | 18.85079 | 19909 ft | 355 kts | 75° |
| 2026-04-26 20:57 | 53.52933 | 18.89198 | 19576 ft | 354 kts | 76° |
| 2026-04-26 20:57 | 53.53185 | 18.93308 | 19255 ft | 353 kts | 76° |
| 2026-04-26 20:58 | 53.53442 | 18.97392 | 18944 ft | 352 kts | 75° |
| 2026-04-26 20:58 | 53.53707 | 19.01484 | 18591 ft | 352 kts | 74° |
| 2026-04-26 20:58 | 53.53975 | 19.05559 | 18236 ft | 350 kts | 74° |
| 2026-04-26 20:58 | 53.54244 | 19.09619 | 17896 ft | 349 kts | 75° |
| 2026-04-26 20:59 | 53.54511 | 19.13659 | 17560 ft | 347 kts | 75° |
| 2026-04-26 20:59 | 53.54776 | 19.17672 | 17239 ft | 344 kts | 75° |
| 2026-04-26 20:59 | 53.55039 | 19.21660 | 16922 ft | 342 kts | 75° |
| 2026-04-26 20:59 | 53.55299 | 19.25622 | 16612 ft | 340 kts | 75° |
| 2026-04-26 21:00 | 53.55556 | 19.29556 | 16301 ft | 338 kts | 75° |
| 2026-04-26 21:00 | 53.55812 | 19.33473 | 15997 ft | 336 kts | 75° |
| 2026-04-26 21:00 | 53.56063 | 19.37364 | 15691 ft | 334 kts | 75° |
| 2026-04-26 21:00 | 53.56312 | 19.41238 | 15380 ft | 332 kts | 75° |
| 2026-04-26 21:01 | 53.56559 | 19.45089 | 15077 ft | 331 kts | 75° |
| 2026-04-26 21:01 | 53.56805 | 19.48927 | 14768 ft | 329 kts | 75° |
| 2026-04-26 21:01 | 53.57050 | 19.52743 | 14484 ft | 328 kts | 75° |
| 2026-04-26 21:01 | 53.57293 | 19.56547 | 14181 ft | 326 kts | 75° |
| 2026-04-26 21:02 | 53.57534 | 19.60336 | 13844 ft | 325 kts | 76° |
| 2026-04-26 21:02 | 53.57772 | 19.64108 | 13506 ft | 324 kts | 76° |
| 2026-04-26 21:02 | 53.58008 | 19.67869 | 13185 ft | 322 kts | 76° |
| 2026-04-26 21:02 | 53.58242 | 19.71598 | 12875 ft | 319 kts | 76° |
| 2026-04-26 21:03 | 53.58473 | 19.75294 | 12567 ft | 317 kts | 76° |
| 2026-04-26 21:03 | 53.58701 | 19.78970 | 12273 ft | 315 kts | 77° |
| 2026-04-26 21:03 | 53.58925 | 19.82618 | 11978 ft | 312 kts | 77° |
| 2026-04-26 21:03 | 53.59092 | 19.86263 | 11683 ft | 315 kts | 86° |
| 2026-04-26 21:04 | 53.58565 | 19.89863 | 11506 ft | 319 kts | 109° |
| 2026-04-26 21:04 | 53.57650 | 19.93241 | 11232 ft | 317 kts | 111° |
| 2026-04-26 21:04 | 53.56729 | 19.96600 | 10953 ft | 315 kts | 111° |
| 2026-04-26 21:04 | 53.55813 | 19.99895 | 10667 ft | 314 kts | 112° |
| 2026-04-26 21:05 | 53.54833 | 20.03231 | 10389 ft | 313 kts | 114° |
| 2026-04-26 21:05 | 53.53868 | 20.06467 | 10246 ft | 306 kts | 114° |
| 2026-04-26 21:05 | 53.52929 | 20.09624 | 9939 ft | 306 kts | 114° |
| 2026-04-26 21:05 | 53.51971 | 20.12852 | 9628 ft | 304 kts | 114° |
| 2026-04-26 21:06 | 53.51044 | 20.15981 | 9338 ft | 302 kts | 113° |
| 2026-04-26 21:06 | 53.50113 | 20.19131 | 9050 ft | 300 kts | 113° |
| 2026-04-26 21:06 | 53.49187 | 20.22263 | 8781 ft | 298 kts | 113° |
| 2026-04-26 21:06 | 53.48269 | 20.25367 | 8492 ft | 296 kts | 113° |
| 2026-04-26 21:07 | 53.47358 | 20.28444 | 8206 ft | 294 kts | 113° |
| 2026-04-26 21:07 | 53.46450 | 20.31506 | 7932 ft | 292 kts | 113° |
| 2026-04-26 21:07 | 53.45546 | 20.34546 | 7665 ft | 290 kts | 113° |
| 2026-04-26 21:07 | 53.44645 | 20.37568 | 7380 ft | 289 kts | 113° |
| 2026-04-26 21:08 | 53.43748 | 20.40567 | 7111 ft | 287 kts | 113° |
| 2026-04-26 21:08 | 53.42856 | 20.43547 | 6836 ft | 285 kts | 113° |
| 2026-04-26 21:08 | 53.41970 | 20.46503 | 6569 ft | 283 kts | 113° |
| 2026-04-26 21:08 | 53.41086 | 20.49448 | 6288 ft | 281 kts | 113° |
| 2026-04-26 21:09 | 53.40211 | 20.52365 | 6018 ft | 279 kts | 113° |
| 2026-04-26 21:09 | 53.39342 | 20.55260 | 5723 ft | 278 kts | 113° |
| 2026-04-26 21:09 | 53.38470 | 20.58162 | 5320 ft | 280 kts | 114° |
| 2026-04-26 21:09 | 53.37590 | 20.61079 | 5028 ft | 280 kts | 114° |
| 2026-04-26 21:10 | 53.36715 | 20.63977 | 4732 ft | 278 kts | 114° |
| 2026-04-26 21:10 | 53.35756 | 20.66786 | 4441 ft | 278 kts | 123° |
| 2026-04-26 21:10 | 53.34561 | 20.69315 | 4173 ft | 276 kts | 127° |
| 2026-04-26 21:10 | 53.33417 | 20.71841 | 4046 ft | 268 kts | 123° |
| 2026-04-26 21:11 | 53.32437 | 20.74436 | 3926 ft | 260 kts | 117° |
| 2026-04-26 21:11 | 53.31628 | 20.77051 | 3807 ft | 252 kts | 113° |
| 2026-04-26 21:11 | 53.30940 | 20.79698 | 3702 ft | 244 kts | 108° |
| 2026-04-26 21:11 | 53.30733 | 20.82434 | 3568 ft | 229 kts | 72° |
| 2026-04-26 21:12 | 53.31505 | 20.84542 | 3421 ft | 210 kts | 30° |
| 2026-04-26 21:12 | 53.32802 | 20.85273 | 3360 ft | 193 kts | 5° |
| 2026-04-26 21:12 | 53.34126 | 20.85844 | 3255 ft | 196 kts | 14° |
| 2026-04-26 21:12 | 53.35417 | 20.86591 | 3002 ft | 195 kts | 15° |
| 2026-04-26 21:13 | 53.36668 | 20.87306 | 2754 ft | 184 kts | 14° |
| 2026-04-26 21:13 | 53.37832 | 20.87961 | 2507 ft | 175 kts | 13° |
| 2026-04-26 21:13 | 53.38956 | 20.88592 | 2248 ft | 166 kts | 13° |
| 2026-04-26 21:13 | 53.40007 | 20.89182 | 2048 ft | 153 kts | 13° |
| 2026-04-26 21:14 | 53.40974 | 20.89724 | 1818 ft | 142 kts | 13° |
| 2026-04-26 21:14 | 53.41902 | 20.90242 | 1646 ft | 141 kts | 13° |
| 2026-04-26 21:14 | 53.42848 | 20.90772 | 1438 ft | 145 kts | 13° |
| 2026-04-26 21:14 | 53.43804 | 20.91309 | 1233 ft | 145 kts | 16° |
| 2026-04-26 21:15 | 53.44776 | 20.91853 | 1018 ft | 149 kts | 17° |
| 2026-04-26 21:15 | 53.45773 | 20.92418 | 786 ft | 152 kts | 18° |
| 2026-04-26 21:15 | 53.46758 | 20.92970 | 576 ft | 147 kts | 18° |
| 2026-04-26 21:15 | 53.47721 | 20.93507 | 449 ft | 139 kts | 18° |
| 2026-04-26 21:16 | 53.48518 | 20.93955 | 469 ft | 86 kts | 18° |
| 2026-04-26 21:16 | 53.48751 | 20.94102 | 465 ft | 20 kts | 39° |
| 2026-04-26 21:16 | 53.48778 | 20.94302 | 466 ft | 17 kts | 107° |
| 2026-04-26 21:16 | 53.48775 | 20.94322 | 466 ft | 0 kts | 108° |
| 2026-04-26 21:17 | 53.48772 | 20.94335 | 466 ft | 5 kts | 104° |
| 2026-04-26 21:17 | 53.48795 | 20.94399 | 466 ft | 8 kts | 25° |
| 2026-04-26 21:17 | 53.48832 | 20.94442 | 466 ft | 3 kts | 94° |
| 2026-04-26 21:17 | 53.48822 | 20.94480 | 466 ft | 4 kts | 108° |
| 2026-04-26 21:18 | 53.48814 | 20.94521 | 464 ft | 4 kts | 108° |
| 2026-04-26 21:18 | 53.48812 | 20.94533 | 463 ft | 0 kts | 108° |